Time;durP1;ratioP1;P1;durP2;ratioP2;P2;SDS_P1;SDS_P2;PMS_P1;PMS_P2;Temp;Humidity;BMP_temperature;BMP_pressure;BME280_temperature;BME280_humidity;BME280_pressure;Samples;Min_cycle;Max_cycle;Signal;HPM_P1;HPM_P2
2022/07/28 00:01:31;;;;;;;3.00;0.95;;;16.50;92.30;;;;;;4097450;28;20450;-66
2022/07/28 00:03:31;;;;;;;2.03;0.90;;;16.50;92.50;;;;;;4098003;28;20126;-66
2022/07/28 00:05:32;;;;;;;1.67;0.60;;;16.50;92.50;;;;;;4097654;28;20066;-66
2022/07/28 00:07:33;;;;;;;2.20;0.88;;;16.50;92.60;;;;;;4098414;28;20035;-66
2022/07/28 00:09:33;;;;;;;4.80;0.90;;;16.40;92.70;;;;;;4097237;28;20039;-66
2022/07/28 00:11:34;;;;;;;2.67;0.80;;;16.50;92.70;;;;;;4097482;28;20028;-66
2022/07/28 00:13:35;;;;;;;3.92;0.93;;;16.50;92.60;;;;;;4082574;29;20491;-66
2022/07/28 00:15:36;;;;;;;2.08;0.77;;;16.50;92.80;;;;;;4082072;29;20040;-66
2022/07/28 00:17:37;;;;;;;1.20;0.57;;;16.30;92.80;;;;;;4094239;29;20364;-65
2022/07/28 00:19:37;;;;;;;2.13;0.70;;;16.40;93.00;;;;;;4097193;28;20454;-66
2022/07/28 00:21:38;;;;;;;1.25;0.93;;;16.50;93.10;;;;;;4097703;28;20042;-66
2022/07/28 00:23:39;;;;;;;2.50;0.80;;;16.50;93.20;;;;;;4098495;28;20094;-65
2022/07/28 00:25:39;;;;;;;1.30;0.70;;;16.60;93.10;;;;;;4096888;28;20518;-66
2022/07/28 00:27:40;;;;;;;2.67;0.70;;;16.60;92.90;;;;;;4098037;28;20027;-66
2022/07/28 00:29:40;;;;;;;3.17;1.08;;;16.60;93.20;;;;;;4097332;28;20110;-65
2022/07/28 00:31:41;;;;;;;3.72;1.00;;;16.60;93.00;;;;;;4096737;28;20047;-66
2022/07/28 00:33:42;;;;;;;3.55;0.80;;;16.50;93.10;;;;;;4098496;28;20653;-66
2022/07/28 00:35:42;;;;;;;0.77;0.57;;;16.60;93.10;;;;;;4097555;28;20058;-65
2022/07/28 00:37:43;;;;;;;2.75;0.80;;;16.50;93.20;;;;;;4096741;28;20036;-66
2022/07/28 00:39:43;;;;;;;4.07;1.00;;;16.50;93.20;;;;;;4096798;28;20090;-66
2022/07/28 00:41:44;;;;;;;1.33;0.60;;;16.50;93.00;;;;;;4097238;28;20043;-65
2022/07/28 00:43:50;;;;;;;3.08;1.10;;;16.50;93.20;;;;;;4097338;28;20035;-65
2022/07/28 00:45:50;;;;;;;1.40;0.60;;;16.40;93.30;;;;;;4097306;28;20059;-66
2022/07/28 00:47:51;;;;;;;2.78;0.82;;;16.30;93.50;;;;;;4096489;28;20046;-66
2022/07/28 00:49:52;;;;;;;2.08;0.80;;;16.30;93.60;;;;;;4097140;28;20069;-66
2022/07/28 00:51:53;;;;;;;2.20;1.00;;;16.30;93.70;;;;;;4096726;28;20035;-66
2022/07/28 00:53:54;;;;;;;2.63;1.08;;;16.20;93.70;;;;;;4098025;28;20027;-66
2022/07/28 00:55:56;;;;;;;2.30;0.80;;;16.10;94.00;;;;;;4097263;28;20038;-66
2022/07/28 00:57:57;;;;;;;5.37;1.23;;;16.10;93.90;;;;;;4097923;28;20035;-66
2022/07/28 00:59:57;;;;;;;1.95;0.80;;;16.10;94.20;;;;;;4096920;28;20350;-66
2022/07/28 01:01:58;;;;;;;3.03;1.23;;;16.10;94.00;;;;;;4097050;28;20415;-66
2022/07/28 01:04:00;;;;;;;2.42;0.88;;;16.10;94.10;;;;;;4097396;28;20034;-66
2022/07/28 01:06:04;;;;;;;;;;;16.10;94.20;;;;;;4097385;29;20032;-66
2022/07/28 01:08:14;;;;;;;2.17;0.80;;;16.00;94.50;;;;;;4096497;28;19956;-65
2022/07/28 01:11:02;;;;;;;1.35;0.77;;;16.00;94.20;;;;;;4093878;28;20062;-65
2022/07/28 01:13:12;;;;;;;2.80;0.88;;;15.90;94.50;;;;;;4084186;28;20027;-66
2022/07/28 01:15:22;;;;;;;3.22;0.85;;;15.90;94.60;;;;;;4094301;28;20384;-66
2022/07/28 01:17:34;;;;;;;4.65;1.15;;;16.00;94.70;;;;;;4096698;28;20024;-66
2022/07/28 01:19:40;;;;;;;1.40;0.90;;;16.00;94.60;;;;;;4094983;28;20034;-66
2022/07/28 03:56:27;;;;;;;2.65;0.88;;;15.80;97.30;;;;;;4970785;23;20284;31
2022/07/28 03:58:47;;;;;;;3.72;0.90;;;15.90;97.40;;;;;;3995453;29;20547;-64
2022/07/28 04:00:52;;;;;;;2.17;0.98;;;16.00;97.10;;;;;;4029713;29;20096;-67
2022/07/28 04:02:53;;;;;;;2.75;1.15;;;16.00;96.90;;;;;;4020343;29;20061;-66
2022/07/28 04:04:54;;;;;;;1.33;0.73;;;16.10;97.00;;;;;;4023352;29;20079;-64
2022/07/28 04:06:54;;;;;;;2.53;0.77;;;16.10;96.80;;;;;;4021470;29;20560;-65
2022/07/28 04:08:55;;;;;;;1.15;0.60;;;16.20;96.60;;;;;;4021981;29;20403;-64
2022/07/28 04:10:56;;;;;;;2.05;1.10;;;16.20;96.40;;;;;;4023049;29;20049;-64
2022/07/28 04:12:58;;;;;;;3.72;1.20;;;16.20;96.30;;;;;;4023562;29;20061;-65
2022/07/28 04:14:59;;;;;;;2.17;1.00;;;16.30;96.40;;;;;;4022597;29;20053;-64
2022/07/28 04:16:59;;;;;;;3.92;1.02;;;16.30;96.20;;;;;;4021291;29;20912;-65
2022/07/28 04:19:00;;;;;;;1.83;0.75;;;16.30;96.40;;;;;;4023809;29;20045;-65
2022/07/28 04:21:00;;;;;;;3.00;1.02;;;16.30;96.20;;;;;;4026687;29;20489;-64
2022/07/28 04:23:01;;;;;;;1.95;1.00;;;16.30;96.20;;;;;;4025903;29;20497;-64
2022/07/28 04:25:02;;;;;;;1.90;0.90;;;16.40;96.30;;;;;;4024250;29;20040;-65
2022/07/28 04:27:03;;;;;;;1.65;1.05;;;16.40;96.30;;;;;;4026626;29;20373;-64
2022/07/28 04:29:04;;;;;;;2.90;1.33;;;16.40;96.40;;;;;;4022745;29;20121;-64
2022/07/28 04:31:05;;;;;;;2.20;0.90;;;16.40;96.40;;;;;;4040970;29;20057;-65
2022/07/28 04:33:05;;;;;;;2.58;1.10;;;16.50;96.40;;;;;;4025192;29;20128;-64
2022/07/28 04:35:07;;;;;;;2.88;1.13;;;16.40;96.30;;;;;;4023511;29;20052;-65
2022/07/28 04:37:08;;;;;;;3.33;1.10;;;16.40;96.30;;;;;;4026125;29;20072;-64
2022/07/28 04:39:12;;;;;;;2.40;1.05;;;16.40;96.30;;;;;;4028822;29;20064;-64
2022/07/28 04:41:12;;;;;;;2.05;0.90;;;16.30;96.40;;;;;;4027545;29;20060;-64
2022/07/28 04:43:13;;;;;;;1.95;1.05;;;16.30;96.60;;;;;;4024633;29;20045;-64
2022/07/28 04:45:14;;;;;;;2.17;0.82;;;16.40;96.80;;;;;;4038191;29;26156;-65
2022/07/28 04:47:15;;;;;;;2.28;1.00;;;16.30;96.70;;;;;;4027682;29;20041;-64
2022/07/28 04:49:15;;;;;;;1.88;0.93;;;16.40;96.80;;;;;;4022783;29;20044;-64
2022/07/28 04:51:16;;;;;;;2.70;1.20;;;16.40;96.90;;;;;;4024678;29;20045;-64
2022/07/28 04:53:17;;;;;;;4.30;1.20;;;16.40;97.30;;;;;;4024217;29;20125;-64
2022/07/28 04:55:18;;;;;;;3.13;0.90;;;16.50;97.10;;;;;;4025867;29;20037;-65
2022/07/28 04:57:19;;;;;;;3.25;1.20;;;16.50;97.20;;;;;;4024066;29;20415;-64
2022/07/28 04:59:19;;;;;;;1.98;0.90;;;16.50;97.30;;;;;;4025137;29;20045;-67
2022/07/28 05:01:20;;;;;;;3.53;1.08;;;16.60;97.60;;;;;;4026900;29;20128;-64
2022/07/28 05:03:21;;;;;;;2.92;1.02;;;16.60;97.30;;;;;;4027286;29;20037;-64
2022/07/28 05:05:21;;;;;;;2.55;0.95;;;16.50;96.90;;;;;;4020707;29;20042;-64
2022/07/28 05:07:22;;;;;;;2.45;1.05;;;16.50;97.20;;;;;;4024511;29;20034;-64
2022/07/28 05:09:23;;;;;;;3.25;1.10;;;16.50;97.20;;;;;;4024287;29;20124;-65
2022/07/28 05:11:23;;;;;;;1.83;0.77;;;16.50;97.20;;;;;;4020254;29;20029;-65
2022/07/28 05:13:24;;;;;;;3.75;1.33;;;16.50;97.20;;;;;;4024540;29;20132;-65
2022/07/28 05:15:25;;;;;;;9.18;1.80;;;16.20;97.50;;;;;;4021835;29;20460;-65
2022/07/28 05:17:26;;;;;;;3.85;1.17;;;16.20;97.60;;;;;;4022302;29;20419;-65
2022/07/28 05:19:26;;;;;;;3.42;1.30;;;16.10;97.90;;;;;;4027295;29;20040;-65
2022/07/28 05:21:27;;;;;;;4.07;1.20;;;16.00;97.80;;;;;;4028794;29;20068;-65
2022/07/28 05:23:27;;;;;;;2.78;1.00;;;16.00;98.00;;;;;;4022883;29;20113;-65
2022/07/28 05:25:28;;;;;;;3.70;1.10;;;16.00;98.30;;;;;;4022278;29;20090;-64
2022/07/28 05:27:29;;;;;;;4.13;1.35;;;15.90;97.90;;;;;;4018526;29;20052;-65
2022/07/28 05:29:30;;;;;;;3.88;1.15;;;15.90;98.20;;;;;;4024348;29;20052;-65
2022/07/28 05:31:30;;;;;;;3.65;1.40;;;15.80;98.50;;;;;;4025079;29;20065;-65
2022/07/28 05:33:31;;;;;;;4.40;1.10;;;15.80;98.10;;;;;;4026477;29;20642;-65
2022/07/28 05:35:31;;;;;;;3.95;1.40;;;15.80;98.70;;;;;;4025747;29;20041;-64
2022/07/28 05:37:33;;;;;;;4.72;1.33;;;15.80;98.80;;;;;;4024517;29;20041;-65
2022/07/28 05:39:35;;;;;;;4.78;1.15;;;15.70;98.30;;;;;;4036806;29;20435;-64
2022/07/28 05:41:36;;;;;;;2.92;1.23;;;15.80;98.70;;;;;;4023100;29;20048;-65
2022/07/28 05:43:37;;;;;;;4.40;1.48;;;15.90;98.50;;;;;;4027900;29;20065;-65
2022/07/28 05:45:38;;;;;;;4.60;1.48;;;15.90;98.50;;;;;;4020178;29;20049;-65
2022/07/28 05:47:45;;;;;;;4.15;1.48;;;15.80;98.20;;;;;;4028156;29;20059;-64
2022/07/28 05:49:45;;;;;;;7.97;1.73;;;15.80;98.40;;;;;;4028394;29;20037;-65
2022/07/28 05:51:46;;;;;;;3.38;1.45;;;15.90;98.40;;;;;;4032365;29;20408;-65
2022/07/28 05:53:46;;;;;;;3.72;1.40;;;15.90;98.40;;;;;;4026597;29;20053;-64
2022/07/28 05:55:49;;;;;;;3.67;1.17;;;16.10;98.50;;;;;;4027993;29;20054;-65
2022/07/28 05:57:50;;;;;;;;;;;16.10;98.10;;;;;;4026613;29;20311;-65
2022/07/28 05:59:50;;;;;;;4.97;1.60;;;16.20;97.90;;;;;;4029129;29;20226;-65
2022/07/28 06:01:51;;;;;;;4.20;1.25;;;16.30;98.00;;;;;;4022521;29;20132;-67
2022/07/28 06:03:52;;;;;;;7.45;2.03;;;16.40;98.20;;;;;;4025567;29;20129;-67
2022/07/28 06:05:55;;;;;;;4.55;1.40;;;16.50;97.40;;;;;;4027274;29;20515;-67
2022/07/28 06:07:57;;;;;;;6.53;1.98;;;16.60;97.80;;;;;;4028042;29;20044;-67
2022/07/28 06:09:58;;;;;;;5.15;1.63;;;16.60;97.00;;;;;;4026967;29;20033;-67
2022/07/28 06:11:58;;;;;;;4.95;1.70;;;16.70;97.20;;;;;;4023535;29;20041;-67
2022/07/28 06:13:59;;;;;;;5.55;1.80;;;16.80;97.00;;;;;;4020543;29;20045;-67
2022/07/28 06:15:59;;;;;;;3.20;1.50;;;16.90;96.80;;;;;;4024456;29;20049;-67
2022/07/28 06:18:00;;;;;;;3.40;1.50;;;17.00;96.70;;;;;;4024520;29;20056;-67
2022/07/28 06:20:00;;;;;;;6.03;1.40;;;17.10;96.70;;;;;;4027019;29;20045;-67
2022/07/28 06:22:02;;;;;;;5.80;1.67;;;17.20;96.60;;;;;;4026672;29;20465;-67
2022/07/28 06:24:03;;;;;;;4.07;1.90;;;17.20;95.80;;;;;;4024240;29;20085;-67
2022/07/28 06:26:04;;;;;;;4.10;1.60;;;17.30;95.90;;;;;;4024937;29;20045;-68
2022/07/28 06:28:04;;;;;;;5.03;1.38;;;17.40;96.20;;;;;;4026246;29;20098;-67
2022/07/28 06:30:06;;;;;;;4.38;1.70;;;17.60;99.10;;;;;;4026953;29;20039;-71
2022/07/28 06:32:06;;;;;;;16.58;1.85;;;17.90;95.60;;;;;;4027952;29;20485;-68
2022/07/28 06:34:07;;;;;;;4.65;1.65;;;18.10;94.60;;;;;;4030201;29;20047;-70
2022/07/28 06:36:07;;;;;;;4.30;1.30;;;18.30;95.10;;;;;;4030118;29;20070;-68
2022/07/28 06:38:08;;;;;;;6.38;1.50;;;18.50;94.80;;;;;;4032575;29;20041;-69
2022/07/28 06:40:10;;;;;;;4.25;1.15;;;18.60;93.70;;;;;;4029057;29;20476;-69
2022/07/28 06:42:11;;;;;;;4.22;1.48;;;18.80;93.40;;;;;;4025778;29;20393;-68
2022/07/28 06:44:12;;;;;;;4.15;1.65;;;19.00;94.10;;;;;;4031812;29;20048;-68
2022/07/28 06:46:17;;;;;;;4.70;1.52;;;19.20;93.00;;;;;;4027352;29;20143;-69
2022/07/28 06:48:18;;;;;;;4.72;1.38;;;19.20;92.60;;;;;;4028798;29;20593;-69
2022/07/28 06:50:20;;;;;;;5.00;1.52;;;19.50;92.50;;;;;;4033925;29;20060;-69
2022/07/28 06:52:21;;;;;;;8.85;1.92;;;19.60;92.20;;;;;;4019089;29;20176;-69
2022/07/28 06:54:21;;;;;;;6.05;1.77;;;19.60;91.60;;;;;;4035394;29;20131;-69
2022/07/28 06:56:22;;;;;;;2.85;1.20;;;19.80;91.40;;;;;;4032882;29;20847;-69
2022/07/28 06:58:22;;;;;;;4.50;1.90;;;19.90;91.30;;;;;;4027869;29;20081;-70
2022/07/28 07:00:23;;;;;;;6.97;1.67;;;20.00;91.00;;;;;;4027457;29;20487;-69
2022/07/28 07:02:24;;;;;;;3.45;1.38;;;20.00;90.50;;;;;;4028698;29;20777;-69
2022/07/28 07:04:25;;;;;;;4.93;1.98;;;20.00;90.70;;;;;;4026533;29;20055;-69
2022/07/28 07:06:25;;;;;;;5.22;1.45;;;20.00;90.50;;;;;;4027906;29;20053;-69
2022/07/28 07:08:26;;;;;;;7.47;1.40;;;19.70;90.70;;;;;;4027768;29;20048;-70
2022/07/28 07:10:26;;;;;;;4.53;1.50;;;19.80;91.00;;;;;;4022423;29;20060;-69
2022/07/28 07:12:27;;;;;;;4.63;1.50;;;19.80;91.00;;;;;;4023518;29;20045;-69
2022/07/28 07:14:28;;;;;;;7.18;2.15;;;19.90;90.70;;;;;;4026620;29;20079;-69
2022/07/28 07:16:29;;;;;;;5.95;1.60;;;19.70;90.30;;;;;;4025024;29;20056;-69
2022/07/28 07:18:29;;;;;;;5.00;1.30;;;19.70;91.00;;;;;;4031779;29;20080;-69
2022/07/28 07:20:30;;;;;;;3.47;1.48;;;19.70;91.40;;;;;;4031156;29;20056;-69
2022/07/28 07:22:31;;;;;;;4.47;1.50;;;19.70;90.70;;;;;;4029181;29;20416;-69
2022/07/28 07:24:31;;;;;;;5.80;1.75;;;19.70;90.90;;;;;;4028327;29;20880;-69
2022/07/28 07:26:32;;;;;;;5.22;1.20;;;19.80;90.70;;;;;;4023595;29;20509;-69
2022/07/28 07:28:33;;;;;;;4.07;1.38;;;19.80;90.80;;;;;;4032983;29;20113;-69
2022/07/28 07:30:34;;;;;;;2.50;1.20;;;19.90;90.70;;;;;;4035768;29;20034;-69
2022/07/28 07:32:35;;;;;;;2.35;1.25;;;19.90;90.50;;;;;;4045801;29;20100;-69
2022/07/28 07:34:35;;;;;;;3.25;1.35;;;19.80;90.70;;;;;;4039858;29;20127;-69
2022/07/28 07:36:36;;;;;;;5.78;1.60;;;19.80;91.20;;;;;;4034791;29;20037;-69
2022/07/28 07:38:38;;;;;;;4.43;1.17;;;20.00;91.00;;;;;;4032595;29;20064;-69
2022/07/28 07:40:39;;;;;;;2.25;1.13;;;19.90;90.20;;;;;;4031422;29;20685;-69
2022/07/28 07:42:39;;;;;;;3.95;1.38;;;20.00;91.30;;;;;;4035068;29;20045;-69
2022/07/28 07:44:40;;;;;;;3.40;1.30;;;20.10;90.80;;;;;;4036176;29;20060;-69
2022/07/28 07:46:41;;;;;;;5.65;1.52;;;20.30;90.80;;;;;;4038060;29;20069;-69
2022/07/28 07:48:41;;;;;;;6.95;1.20;;;20.50;89.80;;;;;;4038997;29;20833;-69
2022/07/28 07:50:42;;;;;;;3.80;1.35;;;20.60;90.80;;;;;;4031021;29;20124;-69
2022/07/28 07:52:43;;;;;;;3.53;1.10;;;20.80;90.30;;;;;;4044639;29;20052;-69
2022/07/28 07:54:44;;;;;;;4.50;1.67;;;20.80;89.40;;;;;;4038272;29;20041;-69
2022/07/28 07:56:45;;;;;;;3.88;1.45;;;20.90;88.70;;;;;;4058025;29;20044;-69
2022/07/28 07:58:45;;;;;;;5.60;1.58;;;20.90;88.70;;;;;;4037107;29;20036;-69
2022/07/28 08:00:46;;;;;;;4.15;1.38;;;21.00;88.50;;;;;;4039701;29;20041;-69
2022/07/28 08:02:47;;;;;;;2.05;0.95;;;21.10;88.40;;;;;;4037700;29;20049;-69
2022/07/28 08:04:48;;;;;;;3.95;1.50;;;21.00;87.70;;;;;;4040311;29;20068;-69
2022/07/28 08:06:50;;;;;;;4.43;1.25;;;21.00;87.50;;;;;;4031564;29;20044;-69
2022/07/28 08:08:50;;;;;;;4.18;1.20;;;21.00;87.60;;;;;;4040277;29;20052;-69
2022/07/28 08:10:51;;;;;;;3.55;1.42;;;21.00;89.30;;;;;;4032679;29;20033;-69
2022/07/28 08:12:51;;;;;;;6.03;1.30;;;21.00;87.90;;;;;;4031113;29;20092;-69
2022/07/28 08:14:53;;;;;;;4.72;1.42;;;21.00;87.80;;;;;;4031975;29;20454;-69
2022/07/28 08:16:55;;;;;;;3.50;1.30;;;21.00;88.00;;;;;;4033638;29;20040;-69
2022/07/28 08:18:58;;;;;;;2.33;0.82;;;21.10;89.30;;;;;;4024939;29;20041;-69
2022/07/28 08:20:59;;;;;;;3.47;1.38;;;21.20;90.10;;;;;;4028272;29;20048;-69
2022/07/28 08:23:00;;;;;;;2.75;1.40;;;21.20;87.50;;;;;;4032652;29;20053;-69
2022/07/28 08:25:00;;;;;;;3.53;1.10;;;21.00;86.70;;;;;;4028293;29;20068;-70
2022/07/28 08:27:01;;;;;;;4.43;1.30;;;21.20;89.40;;;;;;4027758;29;20093;-69
2022/07/28 08:29:02;;;;;;;6.63;1.27;;;21.30;87.80;;;;;;4025544;29;20042;-70
2022/07/28 08:31:03;;;;;;;2.90;1.10;;;21.30;87.20;;;;;;4028853;29;20464;-70
2022/07/28 08:33:04;;;;;;;4.80;1.17;;;21.30;87.20;;;;;;4029051;29;20057;-69
2022/07/28 08:35:05;;;;;;;5.30;1.45;;;21.30;89.00;;;;;;4025807;29;20041;-70
2022/07/28 08:37:05;;;;;;;2.38;1.13;;;21.40;87.00;;;;;;4028124;29;20065;-70
2022/07/28 08:39:06;;;;;;;4.22;1.23;;;21.40;86.60;;;;;;4031511;29;20104;-69
2022/07/28 08:41:15;;;;;;;4.13;1.30;;;21.50;86.90;;;;;;4026040;29;20511;-68
2022/07/28 08:43:31;;;;;;;3.70;1.10;;;21.60;88.30;;;;;;4024305;29;20497;-68
2022/07/28 08:45:33;;;;;;;3.03;1.20;;;21.70;90.50;;;;;;4027952;29;20064;-68
2022/07/28 08:47:34;;;;;;;2.50;1.30;;;21.80;87.00;;;;;;4024495;29;20436;-68
2022/07/28 08:49:38;;;;;;;3.78;1.30;;;21.80;86.10;;;;;;4026494;29;20379;-68
2022/07/28 08:51:40;;;;;;;6.03;1.35;;;21.80;84.70;;;;;;4030369;29;20048;-68
2022/07/28 08:53:42;;;;;;;4.20;1.25;;;21.70;84.90;;;;;;4024554;29;20061;-68
2022/07/28 08:55:43;;;;;;;9.43;1.83;;;21.80;85.30;;;;;;4028022;29;20041;-68
2022/07/28 08:57:44;;;;;;;5.55;1.85;;;21.90;84.60;;;;;;4025429;29;20289;-68
2022/07/28 08:59:47;;;;;;;3.50;1.42;;;21.80;84.10;;;;;;4025696;29;20876;-68
2022/07/28 09:01:48;;;;;;;4.75;1.20;;;21.90;84.00;;;;;;4023448;29;20046;-68
2022/07/28 09:03:50;;;;;;;7.47;1.38;;;21.90;83.30;;;;;;4025423;29;20060;-68
2022/07/28 09:05:52;;;;;;;4.80;1.00;;;22.00;84.30;;;;;;4024936;29;20658;-68
2022/07/28 09:07:53;;;;;;;7.03;1.75;;;21.90;84.00;;;;;;4025780;29;20048;-68
2022/07/28 09:09:54;;;;;;;3.55;1.33;;;21.90;82.10;;;;;;4028887;29;20057;-69
2022/07/28 09:11:54;;;;;;;3.70;1.65;;;21.90;82.80;;;;;;4029503;29;20044;-69
2022/07/28 09:13:55;;;;;;;5.95;1.50;;;22.00;81.90;;;;;;4044023;29;20116;-68
2022/07/28 09:15:56;;;;;;;4.63;1.42;;;22.00;82.50;;;;;;4027495;29;20392;-68
2022/07/28 09:17:56;;;;;;;3.47;1.50;;;22.20;81.90;;;;;;4025121;29;20046;-68
2022/07/28 09:19:57;;;;;;;2.53;1.10;;;22.30;85.70;;;;;;4026136;29;20045;-68
2022/07/28 09:21:58;;;;;;;2.83;1.20;;;22.50;87.10;;;;;;4023605;29;20045;-68
2022/07/28 09:24:00;;;;;;;3.85;1.60;;;22.40;80.00;;;;;;4027029;29;20045;-69
2022/07/28 09:26:08;;;;;;;5.40;1.50;;;22.30;79.60;;;;;;4026337;29;20045;-68
2022/07/28 09:28:11;;;;;;;2.92;1.05;;;22.40;80.80;;;;;;4026236;29;20505;-68
2022/07/28 09:30:12;;;;;;;2.75;0.88;;;22.50;81.20;;;;;;4027154;29;20033;-68
2022/07/28 09:32:15;;;;;;;2.28;1.05;;;22.40;82.20;;;;;;4024036;29;20034;-68
2022/07/28 09:34:16;;;;;;;4.47;1.10;;;22.60;80.70;;;;;;4026993;29;20045;-68
2022/07/28 09:36:17;;;;;;;3.90;0.98;;;22.60;81.20;;;;;;4021512;29;20093;-68
2022/07/28 09:38:20;;;;;;;1.65;0.80;;;22.60;79.40;;;;;;4027128;29;20749;-68
2022/07/28 09:40:20;;;;;;;3.22;1.00;;;22.70;80.30;;;;;;4025987;29;20404;-68
2022/07/28 09:42:22;;;;;;;2.97;1.27;;;22.70;78.30;;;;;;4025876;29;20041;-68
2022/07/28 09:44:25;;;;;;;5.80;1.42;;;22.80;78.20;;;;;;4026434;29;20041;-68
2022/07/28 09:46:26;;;;;;;5.18;1.30;;;22.80;77.40;;;;;;4026196;29;20034;-69
2022/07/28 09:48:27;;;;;;;3.93;1.17;;;22.90;78.40;;;;;;4023488;29;20045;-68
2022/07/28 09:50:29;;;;;;;3.95;1.00;;;23.00;78.10;;;;;;4024248;29;20563;-68
2022/07/28 09:52:31;;;;;;;5.18;1.20;;;23.10;86.00;;;;;;4028019;29;20033;-68
2022/07/28 09:54:32;;;;;;;4.40;1.20;;;23.10;77.20;;;;;;4026897;29;20112;-69
2022/07/28 09:56:33;;;;;;;4.60;1.60;;;22.70;77.20;;;;;;4027015;29;20063;-68
2022/07/28 09:58:34;;;;;;;2.42;0.93;;;22.90;78.40;;;;;;4026828;29;20062;-68
2022/07/28 10:00:35;;;;;;;2.03;0.80;;;23.00;81.90;;;;;;4028343;29;20033;-68
2022/07/28 10:02:36;;;;;;;1.10;0.90;;;23.10;77.20;;;;;;4028010;29;20049;-68
2022/07/28 10:04:41;;;;;;;4.38;0.95;;;23.00;76.20;;;;;;4030828;29;20037;-69
2022/07/28 10:06:42;;;;;;;2.00;0.93;;;23.00;76.80;;;;;;4026253;29;20058;-68
2022/07/28 10:08:46;;;;;;;2.45;1.00;;;22.80;77.20;;;;;;4024126;29;20068;-68
2022/07/28 10:10:59;;;;;;;2.92;1.00;;;22.70;76.30;;;;;;4027124;29;20045;-68
2022/07/28 10:13:04;;;;;;;2.67;1.00;;;22.90;77.70;;;;;;4030130;29;20378;-68
2022/07/28 10:17:45;;;;;;;3.40;1.20;;;23.10;76.40;;;;;;4028341;29;20479;-68
2022/07/28 10:19:46;;;;;;;3.20;1.00;;;23.10;75.10;;;;;;4027773;29;20042;-68
2022/07/28 10:21:48;;;;;;;4.75;1.40;;;23.00;74.90;;;;;;4026916;29;20151;-68
2022/07/28 10:23:50;;;;;;;;;;;23.00;75.60;;;;;;4029142;29;20062;-68
2022/07/28 10:25:53;;;;;;;3.42;0.98;;;23.00;75.50;;;;;;4023477;29;20379;-68
2022/07/28 10:27:55;;;;;;;2.63;1.05;;;23.10;79.20;;;;;;4025537;29;20382;-68
2022/07/28 10:30:00;;;;;;;5.10;1.20;;;23.10;75.80;;;;;;4027617;29;20042;-68
2022/07/28 10:32:04;;;;;;;4.90;1.27;;;23.00;75.20;;;;;;4026211;29;20097;-68
2022/07/28 10:34:08;;;;;;;3.28;1.52;;;23.10;76.10;;;;;;4028426;29;20373;-69
2022/07/28 10:36:10;;;;;;;2.55;1.10;;;23.00;74.20;;;;;;4023963;29;20531;-68
2022/07/28 10:38:12;;;;;;;9.77;1.98;;;23.00;75.30;;;;;;4025636;29;20048;-68
2022/07/28 10:40:17;;;;;;;2.55;0.98;;;23.00;71.30;;;;;;4025925;29;20497;-68
2022/07/28 10:42:18;;;;;;;4.07;1.10;;;23.10;72.10;;;;;;4027700;29;20045;-68
2022/07/28 10:44:20;;;;;;;3.65;1.55;;;23.30;71.80;;;;;;4024145;29;20042;-68
2022/07/28 10:46:20;;;;;;;3.05;0.70;;;23.30;71.00;;;;;;4028206;29;20044;-68
2022/07/28 10:48:21;;;;;;;3.47;1.20;;;23.40;73.50;;;;;;4022632;29;20041;-69
2022/07/28 10:50:22;;;;;;;2.92;1.20;;;23.40;70.10;;;;;;4024370;29;20037;-68
2022/07/28 10:52:24;;;;;;;3.15;1.20;;;23.20;71.10;;;;;;4026501;29;20097;-68
2022/07/28 10:54:28;;;;;;;4.00;1.38;;;23.20;73.00;;;;;;4027054;29;20046;-69
2022/07/28 10:56:46;;;;;;;2.13;1.10;;;23.20;73.20;;;;;;4031300;29;20044;-68
2022/07/28 10:59:10;;;;;;;3.97;1.00;;;23.30;74.30;;;;;;4039493;29;20033;-68
2022/07/28 11:01:10;;;;;;;3.65;1.30;;;23.40;73.30;;;;;;4045023;29;20033;-68
2022/07/28 11:03:42;;;;;;;4.28;0.90;;;23.50;73.50;;;;;;4039305;29;20041;-68
2022/07/28 11:05:43;;;;;;;3.47;1.50;;;23.50;72.00;;;;;;4035185;29;20033;-68
2022/07/28 11:07:44;;;;;;;3.40;1.50;;;23.60;72.40;;;;;;4035255;29;20124;-68
2022/07/28 11:09:46;;;;;;;10.02;1.63;;;23.70;74.40;;;;;;4032372;29;20040;-68
2022/07/28 11:11:52;;;;;;;2.57;1.10;;;23.80;72.00;;;;;;4028213;29;20114;-68
2022/07/28 11:14:21;;;;;;;5.07;1.40;;;23.90;70.40;;;;;;4031698;29;20063;-69
2022/07/28 11:16:23;;;;;;;5.05;1.20;;;23.80;70.50;;;;;;4038219;29;20048;-69
2022/07/28 11:18:24;;;;;;;2.70;0.73;;;23.80;70.20;;;;;;4037988;29;20045;-68
2022/07/28 11:21:06;;;;;;;3.15;1.10;;;23.90;72.90;;;;;;4035020;29;20437;-68
2022/07/28 11:23:36;;;;;;;3.23;1.13;;;24.10;74.50;;;;;;4030509;29;20048;-69
2022/07/28 11:25:37;;;;;;;4.28;1.33;;;24.10;69.20;;;;;;4030203;29;20037;-69
2022/07/28 11:27:46;;;;;;;2.53;1.20;;;24.10;68.40;;;;;;4043042;29;20044;-69
2022/07/28 11:29:46;;;;;;;2.72;1.00;;;24.20;69.30;;;;;;4039756;29;20119;-69
2022/07/28 11:31:47;;;;;;;2.95;0.73;;;24.20;69.50;;;;;;4031473;29;20552;-69
2022/07/28 11:33:55;;;;;;;2.83;1.00;;;24.30;69.90;;;;;;4041533;29;20025;-69
2022/07/28 11:35:57;;;;;;;3.80;1.23;;;24.30;70.20;;;;;;4039455;29;20036;-69
2022/07/28 11:38:00;;;;;;;5.30;1.92;;;24.30;69.80;;;;;;4040774;29;20048;-69
2022/07/28 11:40:40;;;;;;;3.00;0.90;;;24.30;68.60;;;;;;4040757;29;20033;-69
2022/07/28 11:42:41;;;;;;;5.72;1.10;;;24.30;69.50;;;;;;4040393;29;20441;-69
2022/07/28 11:44:42;;;;;;;3.78;1.23;;;24.50;70.70;;;;;;4040851;29;20056;-69
2022/07/28 11:46:43;;;;;;;2.92;1.50;;;24.50;69.00;;;;;;4040280;29;20048;-69
2022/07/28 11:48:44;;;;;;;3.28;1.27;;;24.40;68.90;;;;;;4042416;29;20429;-69
2022/07/28 11:51:02;;;;;;;4.25;1.40;;;24.50;70.40;;;;;;4039398;29;20388;-69
2022/07/28 11:53:03;;;;;;;4.35;1.83;;;24.40;69.80;;;;;;4041255;29;20453;-69
2022/07/28 11:55:05;;;;;;;3.80;1.25;;;24.50;69.80;;;;;;4041047;29;20036;-71
2022/07/28 11:57:10;;;;;;;3.37;1.40;;;24.30;69.10;;;;;;4040169;29;20370;-69
2022/07/28 11:59:12;;;;;;;4.53;1.42;;;24.30;70.30;;;;;;4042512;29;20040;-69
2022/07/28 12:01:14;;;;;;;6.93;1.65;;;24.30;70.70;;;;;;4039178;29;20097;-69
2022/07/28 12:03:31;;;;;;;3.70;1.27;;;24.40;68.70;;;;;;4034436;29;20045;-69
2022/07/28 12:05:32;;;;;;;3.25;1.25;;;24.40;67.20;;;;;;4025110;29;20289;-69
2022/07/28 12:07:50;;;;;;;3.03;1.02;;;24.50;68.70;;;;;;4032100;29;20049;-69
2022/07/28 12:09:51;;;;;;;6.90;1.80;;;24.70;75.90;;;;;;4028884;29;20069;-68
2022/07/28 12:11:54;;;;;;;3.05;1.00;;;24.70;66.50;;;;;;4023249;29;20037;-69
2022/07/28 12:14:04;;;;;;;2.90;1.35;;;24.60;66.70;;;;;;4014837;29;20708;-68
2022/07/28 12:16:05;;;;;;;3.13;1.20;;;24.60;67.30;;;;;;4028546;29;20031;-69
2022/07/28 12:18:10;;;;;;;2.97;1.20;;;24.70;67.30;;;;;;4030237;29;20380;-68
2022/07/28 12:20:12;;;;;;;3.75;1.48;;;24.50;68.10;;;;;;4025196;29;20924;-70
2022/07/28 12:22:13;;;;;;;9.43;1.17;;;24.50;68.50;;;;;;4031723;29;20041;-69
2022/07/28 12:24:27;;;;;;;2.13;1.25;;;24.60;69.00;;;;;;4028548;29;20041;-69
2022/07/28 12:26:35;;;;;;;4.97;1.30;;;24.50;68.40;;;;;;4026858;29;20512;-69
2022/07/28 12:28:35;;;;;;;5.00;1.60;;;24.60;69.40;;;;;;4029327;29;20044;-69
2022/07/28 12:30:36;;;;;;;2.88;1.17;;;24.60;68.70;;;;;;4028686;29;20040;-69
2022/07/28 12:32:36;;;;;;;8.90;1.73;;;24.70;69.00;;;;;;4031268;29;21623;-69
2022/07/28 12:34:38;;;;;;;6.78;1.50;;;24.70;67.90;;;;;;4026015;29;20029;-69
2022/07/28 12:36:40;;;;;;;2.42;1.20;;;24.50;67.60;;;;;;4027164;29;20041;-69
2022/07/28 12:38:40;;;;;;;4.90;1.30;;;24.70;69.50;;;;;;4027682;29;20126;-69
2022/07/28 12:40:42;;;;;;;3.17;1.20;;;24.70;68.10;;;;;;4031401;29;20443;-69
2022/07/28 12:42:44;;;;;;;4.38;1.25;;;24.80;69.40;;;;;;4027516;29;20041;-69
2022/07/28 12:44:47;;;;;;;1.77;1.00;;;24.80;68.30;;;;;;4028430;29;20028;-68
2022/07/28 12:46:48;;;;;;;3.67;1.40;;;24.90;71.00;;;;;;4025519;29;20297;-68
2022/07/28 12:48:49;;;;;;;2.40;1.00;;;24.90;67.60;;;;;;4028452;29;20044;-69
2022/07/28 12:50:49;;;;;;;3.10;1.05;;;25.00;67.50;;;;;;4026197;29;20169;-68
2022/07/28 12:53:07;;;;;;;3.55;1.05;;;25.00;66.80;;;;;;4030629;29;20049;-68
2022/07/28 12:55:25;;;;;;;1.75;0.90;;;25.10;64.40;;;;;;4030570;29;20043;-70
2022/07/28 12:57:46;;;;;;;2.20;0.80;;;25.20;64.60;;;;;;4039710;29;20053;-69
2022/07/28 12:59:46;;;;;;;2.45;1.20;;;25.30;64.50;;;;;;4026927;29;20046;-68
2022/07/28 13:01:50;;;;;;;1.90;1.13;;;25.10;65.30;;;;;;4029430;29;20037;-69
2022/07/28 13:03:50;;;;;;;3.03;1.30;;;25.20;67.80;;;;;;4028340;29;20106;-69
2022/07/28 13:06:02;;;;;;;5.32;1.30;;;25.20;65.80;;;;;;4028334;29;20050;-69
2022/07/28 13:08:04;;;;;;;3.20;1.10;;;25.20;64.10;;;;;;4025169;29;20400;-69
2022/07/28 13:10:08;;;;;;;3.38;0.88;;;25.10;66.40;;;;;;4028895;29;20376;-68
2022/07/28 13:12:21;;;;;;;3.33;1.13;;;25.20;68.30;;;;;;4031887;29;20040;-69
2022/07/28 13:14:39;;;;;;;4.72;0.90;;;25.00;65.70;;;;;;4025868;29;20033;-69
2022/07/28 13:16:39;;;;;;;3.00;1.00;;;25.10;65.80;;;;;;4029585;29;20116;-68
2022/07/28 13:19:02;;;;;;;2.45;0.90;;;25.20;67.20;;;;;;4030680;29;20111;-69